Time;durP1;ratioP1;P1;durP2;ratioP2;P2;SDS_P1;SDS_P2;PMS_P1;PMS_P2;Temp;Humidity;BMP_temperature;BMP_pressure;BME280_temperature;BME280_humidity;BME280_pressure;Samples;Min_cycle;Max_cycle;Signal;HPM_P1;HPM_P2
2021/09/20 00:01:01;;;;;;;8.73;7.65;;;14.60;99.90;;;;;;5051473;28;37163;-81
2021/09/20 00:03:27;;;;;;;11.25;7.28;;;14.60;99.90;;;;;;5049520;28;48572;-81
2021/09/20 00:05:53;;;;;;;10.15;7.85;;;14.60;99.90;;;;;;5053804;28;39694;-80
2021/09/20 00:08:19;;;;;;;10.05;7.22;;;14.70;99.90;;;;;;5054620;28;37107;-81
2021/09/20 00:10:45;;;;;;;9.27;6.90;;;14.60;99.90;;;;;;5056204;28;37031;-81
2021/09/20 00:13:11;;;;;;;9.80;7.57;;;14.70;99.90;;;;;;5055959;28;38071;-80
2021/09/20 00:15:38;;;;;;;9.02;7.28;;;14.60;99.90;;;;;;5049695;28;38150;-81
2021/09/20 00:18:05;;;;;;;7.50;6.55;;;14.70;99.90;;;;;;5051914;28;37846;-80
2021/09/20 00:20:31;;;;;;;8.90;7.40;;;14.70;99.90;;;;;;5051817;28;38147;-81
2021/09/20 00:22:57;;;;;;;10.20;6.82;;;14.70;99.90;;;;;;5049647;28;37872;-81
2021/09/20 00:25:23;;;;;;;9.73;6.70;;;14.70;99.90;;;;;;5044556;28;36285;-81
2021/09/20 00:27:49;;;;;;;8.80;6.78;;;14.60;99.90;;;;;;5038446;28;37882;-81
2021/09/20 00:30:15;;;;;;;9.82;6.50;;;14.70;99.90;;;;;;5038309;28;38616;-80
2021/09/20 00:32:41;;;;;;;9.27;6.82;;;14.70;99.90;;;;;;5037486;28;39728;-80
2021/09/20 00:35:08;;;;;;;7.53;5.93;;;14.70;99.90;;;;;;5038870;28;39016;-81
2021/09/20 00:37:34;;;;;;;8.82;6.63;;;14.70;99.90;;;;;;5036963;28;39831;-81
2021/09/20 00:40:00;;;;;;;6.75;5.95;;;14.60;99.90;;;;;;5040297;28;38158;-81
2021/09/20 00:42:26;;;;;;;10.20;6.90;;;14.60;99.90;;;;;;5040263;28;37422;-80
2021/09/20 00:44:53;;;;;;;8.23;6.30;;;14.70;99.90;;;;;;5041666;28;38928;-80
2021/09/20 00:47:19;;;;;;;9.13;6.22;;;14.70;99.90;;;;;;5037059;28;36087;-80
2021/09/20 00:49:45;;;;;;;7.35;6.30;;;14.70;99.90;;;;;;5040872;28;36762;-81
2021/09/20 00:52:11;;;;;;;8.40;6.60;;;14.70;99.90;;;;;;5040107;28;40179;-80
2021/09/20 00:54:37;;;;;;;6.80;5.68;;;14.70;99.90;;;;;;5038411;28;38298;-80
2021/09/20 00:57:05;;;;;;;6.80;5.25;;;14.60;99.90;;;;;;5038003;28;38048;-80
2021/09/20 00:59:31;;;;;;;6.28;5.53;;;14.60;99.90;;;;;;5039015;28;38515;-80
2021/09/20 01:01:57;;;;;;;6.80;5.63;;;14.60;99.90;;;;;;5040841;28;39626;-81
2021/09/20 01:04:24;;;;;;;6.55;5.15;;;14.60;99.90;;;;;;5040326;28;40098;-80
2021/09/20 01:06:50;;;;;;;8.00;5.75;;;14.60;99.90;;;;;;5042064;28;36836;-80
2021/09/20 01:09:16;;;;;;;6.03;5.43;;;14.60;99.90;;;;;;5037486;28;37577;-80
2021/09/20 01:11:43;;;;;;;9.88;5.57;;;14.60;99.90;;;;;;5032969;28;40248;-80
2021/09/20 01:14:10;;;;;;;8.60;5.32;;;14.60;99.90;;;;;;5042759;28;38499;-81
2021/09/20 01:16:36;;;;;;;7.32;5.07;;;14.60;99.90;;;;;;5045490;28;38166;-80
2021/09/20 01:19:02;;;;;;;8.88;5.82;;;14.50;99.90;;;;;;5044521;28;35984;-79
2021/09/20 01:21:29;;;;;;;7.70;5.45;;;14.50;99.90;;;;;;5039755;28;40401;-78
2021/09/20 01:23:55;;;;;;;7.57;5.70;;;14.50;99.90;;;;;;5038693;28;38743;-80
2021/09/20 01:26:21;;;;;;;7.63;5.57;;;14.40;99.90;;;;;;5037322;28;38144;-80
2021/09/20 01:28:47;;;;;;;9.88;6.07;;;14.50;99.90;;;;;;5039251;28;37331;-80
2021/09/20 01:31:14;;;;;;;11.98;5.03;;;14.50;99.90;;;;;;5039277;28;39330;-80
2021/09/20 01:33:40;;;;;;;7.10;5.45;;;14.50;99.90;;;;;;5040329;28;38636;-80
2021/09/20 01:36:06;;;;;;;7.05;5.45;;;14.50;99.90;;;;;;5036030;28;39151;-80
2021/09/20 01:38:32;;;;;;;6.20;4.95;;;14.40;99.90;;;;;;5039297;28;37042;-80
2021/09/20 01:40:59;;;;;;;6.53;5.72;;;14.40;99.90;;;;;;5036283;28;38371;-80
2021/09/20 01:43:26;;;;;;;7.07;5.30;;;14.40;99.90;;;;;;5052184;28;39343;-79
2021/09/20 01:45:52;;;;;;;7.60;5.50;;;14.30;99.90;;;;;;5038490;28;38614;-80
2021/09/20 01:48:18;;;;;;;7.97;5.00;;;14.30;99.90;;;;;;5038366;28;38210;-79
2021/09/20 01:50:45;;;;;;;5.80;4.93;;;14.20;99.90;;;;;;5034382;28;40756;-80
2021/09/20 01:53:12;;;;;;;6.30;5.35;;;14.20;99.90;;;;;;5033240;28;37399;-79
2021/09/20 01:55:38;;;;;;;5.43;4.85;;;14.10;99.90;;;;;;5038289;28;38265;-80
2021/09/20 01:58:05;;;;;;;6.30;5.25;;;14.00;99.90;;;;;;5036398;28;38510;-80
2021/09/20 02:00:31;;;;;;;5.82;4.68;;;14.00;99.90;;;;;;5037567;28;38754;-80
2021/09/20 02:02:57;;;;;;;4.97;4.43;;;14.00;99.90;;;;;;5038576;28;36993;-80
2021/09/20 02:05:23;;;;;;;6.28;4.97;;;13.90;99.90;;;;;;5039623;28;38490;-80
2021/09/20 02:07:50;;;;;;;5.68;4.90;;;13.90;99.90;;;;;;5037099;28;37586;-80
2021/09/20 02:10:17;;;;;;;6.03;4.32;;;13.90;99.90;;;;;;5035849;28;39430;-80
2021/09/20 02:12:43;;;;;;;6.00;4.75;;;13.90;99.90;;;;;;5035588;28;38212;-80
2021/09/20 02:15:11;;;;;;;5.85;4.15;;;13.90;99.90;;;;;;5037075;28;38298;-80
2021/09/20 02:17:37;;;;;;;7.40;4.50;;;13.90;99.90;;;;;;5033377;28;38249;-80
2021/09/20 02:20:05;;;;;;;6.38;4.75;;;13.80;99.90;;;;;;5033906;28;38723;-80
2021/09/20 02:22:34;;;;;;;7.18;4.82;;;13.80;99.90;;;;;;5027024;28;47806;-80
2021/09/20 02:25:02;;;;;;;7.35;4.90;;;13.80;99.90;;;;;;5034692;28;37970;-80
2021/09/20 02:27:28;;;;;;;5.28;4.57;;;13.80;99.90;;;;;;5037115;28;48602;-79
2021/09/20 02:29:54;;;;;;;8.15;5.25;;;13.80;99.90;;;;;;5035479;28;38870;-80
2021/09/20 02:32:21;;;;;;;8.50;5.25;;;13.70;99.90;;;;;;5031245;28;40079;-80
2021/09/20 02:34:47;;;;;;;5.15;4.63;;;13.70;99.90;;;;;;5039002;28;38439;-80
2021/09/20 02:37:13;;;;;;;7.15;4.72;;;13.70;99.90;;;;;;5036490;28;37457;-79
2021/09/20 02:39:39;;;;;;;6.65;5.13;;;13.70;99.90;;;;;;5037810;28;39602;-79
2021/09/20 02:42:05;;;;;;;7.45;5.50;;;13.60;99.90;;;;;;5037309;28;38085;-80
2021/09/20 02:44:32;;;;;;;5.88;5.20;;;13.60;99.90;;;;;;5035003;28;39331;-79
2021/09/20 02:46:58;;;;;;;6.57;5.50;;;13.60;99.90;;;;;;5049426;28;35550;-80
2021/09/20 02:49:24;;;;;;;6.90;5.10;;;13.50;99.90;;;;;;5033374;28;39270;-80
2021/09/20 02:51:50;;;;;;;5.40;4.90;;;13.50;99.90;;;;;;5033939;28;38769;-79
2021/09/20 02:54:16;;;;;;;7.97;4.93;;;13.40;99.90;;;;;;5033847;28;38004;-79
2021/09/20 02:56:42;;;;;;;6.63;4.90;;;13.40;99.90;;;;;;5029495;28;37367;-80
2021/09/20 02:59:08;;;;;;;6.80;5.22;;;13.40;99.90;;;;;;5033941;28;40045;-79
2021/09/20 03:01:34;;;;;;;7.55;4.82;;;13.40;99.90;;;;;;5033748;28;40050;-80
2021/09/20 03:04:01;;;;;;;6.40;5.22;;;13.30;99.90;;;;;;5031328;28;37108;-79
2021/09/20 03:06:27;;;;;;;7.78;5.53;;;13.30;99.90;;;;;;5029976;28;47679;-80
2021/09/20 03:08:53;;;;;;;7.05;5.10;;;13.20;99.90;;;;;;5033882;28;36112;-80
2021/09/20 03:11:21;;;;;;;7.43;5.20;;;13.20;99.90;;;;;;5028019;28;39190;-79
2021/09/20 03:13:47;;;;;;;5.75;5.00;;;13.20;99.90;;;;;;5035773;28;37563;-79
2021/09/20 03:16:13;;;;;;;8.13;4.90;;;13.20;99.90;;;;;;5036700;28;40012;-79
2021/09/20 03:18:39;;;;;;;6.82;5.18;;;13.20;99.90;;;;;;5035663;28;39527;-79
2021/09/20 03:21:05;;;;;;;7.28;4.80;;;13.10;99.90;;;;;;5030790;28;39019;-79
2021/09/20 03:23:32;;;;;;;7.95;5.00;;;13.10;99.90;;;;;;5034917;28;38817;-79
2021/09/20 03:25:58;;;;;;;6.90;4.53;;;13.10;99.90;;;;;;5033193;28;37222;-79
2021/09/20 03:28:24;;;;;;;7.85;5.55;;;13.10;99.90;;;;;;5034926;28;38585;-79
2021/09/20 03:30:50;;;;;;;6.82;5.35;;;13.00;99.90;;;;;;5034532;28;40379;-79
2021/09/20 03:33:17;;;;;;;7.55;5.53;;;13.00;99.90;;;;;;5034987;28;36922;-80
2021/09/20 03:35:43;;;;;;;8.35;5.32;;;13.00;99.90;;;;;;5032438;28;37777;-79
2021/09/20 03:38:09;;;;;;;6.57;5.13;;;12.90;99.90;;;;;;5029977;28;39395;-79
2021/09/20 03:40:35;;;;;;;8.55;5.90;;;12.90;99.90;;;;;;5032537;28;40077;-80
2021/09/20 03:43:02;;;;;;;7.78;5.65;;;12.90;99.90;;;;;;5033948;28;38165;-79
2021/09/20 03:45:28;;;;;;;6.72;5.13;;;12.90;99.90;;;;;;5033809;28;48890;-79
2021/09/20 03:47:54;;;;;;;6.47;5.53;;;13.00;99.90;;;;;;5030968;28;39329;-80
2021/09/20 03:50:20;;;;;;;6.38;5.13;;;13.10;99.90;;;;;;5029757;28;39369;-80
2021/09/20 03:52:47;;;;;;;6.45;5.00;;;13.20;99.90;;;;;;5034634;28;38788;-79
2021/09/20 03:55:13;;;;;;;7.53;5.30;;;13.20;99.90;;;;;;5031668;28;37773;-79
2021/09/20 03:57:39;;;;;;;8.23;5.43;;;13.30;99.90;;;;;;5036776;28;39960;-79
2021/09/20 04:00:07;;;;;;;6.25;5.43;;;13.30;99.90;;;;;;5031792;28;40042;-79
2021/09/20 04:02:33;;;;;;;7.90;5.43;;;13.40;99.90;;;;;;5031385;28;47334;-80
2021/09/20 04:04:59;;;;;;;7.25;5.70;;;13.40;99.90;;;;;;5034031;28;37017;-79
2021/09/20 04:07:25;;;;;;;7.63;5.90;;;13.40;99.90;;;;;;5032930;28;39035;-80
2021/09/20 04:09:51;;;;;;;7.05;5.30;;;13.40;99.90;;;;;;5033647;28;38574;-80
2021/09/20 04:12:17;;;;;;;7.68;5.78;;;13.40;99.90;;;;;;5029635;28;37504;-80
2021/09/20 04:14:43;;;;;;;8.65;5.90;;;13.40;99.90;;;;;;5033418;28;37696;-79
2021/09/20 04:17:09;;;;;;;6.50;5.25;;;13.30;99.90;;;;;;5030068;28;39446;-80
2021/09/20 04:19:35;;;;;;;6.57;5.45;;;13.30;99.90;;;;;;5034065;28;37097;-80
2021/09/20 04:22:03;;;;;;;7.43;5.40;;;13.30;99.90;;;;;;5031812;28;38827;-78
2021/09/20 04:24:29;;;;;;;8.73;5.70;;;13.40;99.90;;;;;;5032177;28;38763;-80
2021/09/20 04:26:56;;;;;;;10.73;6.53;;;13.30;99.90;;;;;;5031775;28;39201;-79
2021/09/20 04:29:22;;;;;;;8.90;5.85;;;13.40;99.90;;;;;;5034588;28;38376;-79
2021/09/20 04:31:48;;;;;;;7.68;5.93;;;13.40;99.90;;;;;;5033016;28;39038;-80
2021/09/20 04:34:14;;;;;;;9.07;6.40;;;13.40;99.90;;;;;;5033822;28;37284;-79
2021/09/20 04:36:40;;;;;;;9.93;6.38;;;13.40;99.90;;;;;;5031218;28;40267;-79
2021/09/20 04:39:06;;;;;;;10.13;6.95;;;13.40;99.90;;;;;;5034506;28;38579;-79
2021/09/20 04:41:32;;;;;;;10.80;6.43;;;13.40;99.90;;;;;;5035001;28;38110;-79
2021/09/20 04:43:59;;;;;;;7.90;6.30;;;13.30;99.90;;;;;;5036798;28;37404;-79
2021/09/20 04:46:25;;;;;;;8.88;6.45;;;13.30;99.90;;;;;;5030727;28;38980;-79
2021/09/20 04:48:51;;;;;;;9.32;6.60;;;13.30;99.90;;;;;;5032545;28;39308;-79
2021/09/20 04:51:17;;;;;;;7.43;6.22;;;13.30;99.90;;;;;;5031800;28;38186;-79
2021/09/20 04:53:43;;;;;;;8.65;6.65;;;13.20;99.90;;;;;;5033040;28;39081;-79
2021/09/20 04:56:09;;;;;;;7.80;6.65;;;13.30;99.90;;;;;;5027964;28;41674;-79
2021/09/20 04:58:35;;;;;;;9.25;6.07;;;13.30;99.90;;;;;;5032378;28;39817;-79
2021/09/20 05:01:02;;;;;;;12.05;6.78;;;13.30;99.90;;;;;;5029096;28;37888;-78
2021/09/20 05:03:28;;;;;;;10.05;7.20;;;13.20;99.90;;;;;;5048761;28;37898;-79
2021/09/20 05:05:54;;;;;;;10.38;6.93;;;13.20;99.90;;;;;;5031497;28;38745;-80
2021/09/20 05:08:20;;;;;;;9.18;7.07;;;13.10;99.90;;;;;;5033104;28;38802;-80
2021/09/20 05:10:46;;;;;;;12.88;7.70;;;13.10;99.90;;;;;;5032002;28;37563;-79
2021/09/20 05:13:12;;;;;;;9.73;6.97;;;13.00;99.90;;;;;;5035784;28;36421;-78
2021/09/20 05:15:38;;;;;;;9.50;7.55;;;13.00;99.90;;;;;;5032735;28;39236;-79
2021/09/20 05:18:04;;;;;;;13.43;7.95;;;13.00;99.90;;;;;;5029183;28;39210;-78
2021/09/20 05:20:31;;;;;;;9.00;6.97;;;13.00;99.90;;;;;;5034010;28;38123;-79
2021/09/20 05:22:57;;;;;;;9.23;7.47;;;12.90;99.90;;;;;;5036339;28;36996;-79
2021/09/20 05:25:23;;;;;;;9.20;7.15;;;12.90;99.90;;;;;;5035239;28;38516;-78
2021/09/20 05:27:51;;;;;;;10.77;7.82;;;12.90;99.90;;;;;;5031062;28;38707;-79
2021/09/20 05:30:18;;;;;;;9.57;7.35;;;12.90;99.90;;;;;;5024265;28;38972;-79
2021/09/20 05:32:44;;;;;;;10.27;8.18;;;12.80;99.90;;;;;;5032908;28;37880;-80
2021/09/20 05:35:12;;;;;;;9.85;7.32;;;12.80;99.90;;;;;;5034972;28;40265;-79
2021/09/20 05:37:38;;;;;;;8.95;7.28;;;12.80;99.90;;;;;;5036109;28;39551;-81
2021/09/20 05:40:06;;;;;;;9.23;6.88;;;12.80;99.90;;;;;;5038525;28;38498;-78
2021/09/20 05:42:32;;;;;;;10.48;7.00;;;12.80;99.90;;;;;;5036912;28;37439;-79
2021/09/20 05:44:58;;;;;;;8.73;6.53;;;12.80;99.90;;;;;;5036350;28;39532;-79
2021/09/20 05:47:24;;;;;;;12.13;7.78;;;12.90;99.90;;;;;;5039400;28;39191;-78
2021/09/20 05:49:50;;;;;;;11.18;6.35;;;12.80;99.90;;;;;;5036699;28;38698;-79
2021/09/20 05:52:17;;;;;;;9.10;7.03;;;12.80;99.90;;;;;;5036885;28;36263;-79
2021/09/20 05:54:43;;;;;;;9.32;6.88;;;12.80;99.90;;;;;;5038007;28;40206;-79
2021/09/20 05:57:09;;;;;;;11.30;7.57;;;12.80;99.90;;;;;;5034535;28;40232;-79
2021/09/20 05:59:35;;;;;;;8.65;7.05;;;12.70;99.90;;;;;;5037914;28;39752;-79
2021/09/20 06:02:02;;;;;;;7.50;6.68;;;12.80;99.90;;;;;;5041335;28;38525;-81
2021/09/20 06:04:28;;;;;;;8.57;6.60;;;12.80;99.90;;;;;;5044131;28;37889;-81
2021/09/20 06:06:54;;;;;;;10.60;5.60;;;12.80;99.90;;;;;;5044361;28;37018;-83
2021/09/20 06:09:21;;;;;;;8.90;6.95;;;12.90;99.90;;;;;;5053884;28;39574;-81
2021/09/20 06:11:48;;;;;;;10.68;7.13;;;12.80;99.90;;;;;;5038103;28;36052;-82
2021/09/20 06:14:14;;;;;;;7.72;6.13;;;12.80;99.90;;;;;;5050588;28;39500;-81
2021/09/20 06:16:41;;;;;;;8.40;7.35;;;12.80;99.90;;;;;;5046947;28;38912;-82
2021/09/20 06:19:07;;;;;;;7.45;6.40;;;12.80;99.90;;;;;;5037765;28;39815;-81
2021/09/20 06:21:34;;;;;;;7.38;6.38;;;12.80;99.90;;;;;;5043309;28;37583;-80
2021/09/20 06:24:00;;;;;;;8.43;6.35;;;12.80;99.90;;;;;;5032259;28;38951;-81
2021/09/20 06:26:26;;;;;;;10.10;6.63;;;12.80;99.90;;;;;;5031215;28;47051;-80
2021/09/20 06:28:53;;;;;;;8.40;6.32;;;12.80;99.90;;;;;;5038159;28;39123;-82
2021/09/20 06:31:19;;;;;;;11.45;6.78;;;12.80;99.90;;;;;;5033885;28;36447;-80
2021/09/20 06:33:45;;;;;;;10.20;5.97;;;12.80;99.90;;;;;;5038157;28;38978;-80
2021/09/20 06:36:11;;;;;;;10.60;7.10;;;12.90;99.90;;;;;;5039594;28;39435;-81
2021/09/20 06:38:37;;;;;;;7.47;6.35;;;12.90;99.90;;;;;;5034071;28;38130;-80
2021/09/20 06:41:03;;;;;;;7.72;5.53;;;12.90;99.90;;;;;;5032220;28;37122;-80
2021/09/20 06:43:29;;;;;;;8.18;6.85;;;12.90;99.90;;;;;;5039739;28;38887;-80
2021/09/20 06:45:55;;;;;;;9.80;6.70;;;12.90;99.90;;;;;;5037443;28;39717;-80
2021/09/20 06:48:21;;;;;;;10.25;6.25;;;12.90;99.90;;;;;;5041604;28;39890;-79
2021/09/20 06:50:48;;;;;;;8.07;6.20;;;12.90;99.90;;;;;;5039997;28;37814;-80
2021/09/20 06:53:14;;;;;;;8.65;7.07;;;12.90;99.90;;;;;;5038669;28;39518;-81
2021/09/20 06:55:40;;;;;;;8.50;6.90;;;13.00;99.90;;;;;;5044510;28;36355;-81
2021/09/20 06:58:06;;;;;;;8.57;7.07;;;13.00;99.90;;;;;;5036748;28;37783;-80
2021/09/20 07:00:33;;;;;;;8.82;7.05;;;13.00;99.90;;;;;;5044408;28;36896;-81
2021/09/20 07:02:59;;;;;;;10.95;6.90;;;13.00;99.90;;;;;;5050760;28;38645;-80
2021/09/20 07:05:25;;;;;;;9.32;6.78;;;13.10;99.90;;;;;;5055968;28;38525;-80
2021/09/20 07:07:52;;;;;;;7.70;6.30;;;13.10;99.90;;;;;;5053608;28;37880;-80
2021/09/20 07:10:18;;;;;;;9.45;6.47;;;13.10;99.90;;;;;;5048591;28;37386;-80
2021/09/20 07:12:45;;;;;;;8.45;6.93;;;13.20;99.90;;;;;;5037350;28;38531;-80
2021/09/20 07:15:13;;;;;;;8.52;6.95;;;13.20;99.90;;;;;;5033593;28;37804;-80
2021/09/20 07:17:39;;;;;;;8.85;6.90;;;13.20;99.90;;;;;;5031328;28;39795;-80
2021/09/20 07:20:07;;;;;;;7.07;6.25;;;13.20;99.90;;;;;;5033705;28;37863;-79
2021/09/20 07:22:33;;;;;;;6.97;6.28;;;13.20;99.90;;;;;;5031312;28;39489;-80
2021/09/20 07:24:59;;;;;;;8.75;6.50;;;13.20;99.90;;;;;;5026802;28;39075;-80
2021/09/20 07:27:25;;;;;;;8.23;7.00;;;13.30;99.90;;;;;;5038520;28;37628;-80
2021/09/20 07:29:52;;;;;;;8.27;6.80;;;13.40;99.90;;;;;;5033583;28;37247;-80
2021/09/20 07:32:18;;;;;;;10.10;6.15;;;13.40;99.90;;;;;;5037234;28;39066;-80
2021/09/20 07:34:44;;;;;;;9.77;6.22;;;13.40;99.90;;;;;;5034227;28;40305;-80
2021/09/20 07:37:10;;;;;;;7.00;6.20;;;13.40;99.90;;;;;;5034263;28;39876;-80
2021/09/20 07:39:37;;;;;;;7.60;6.70;;;13.50;99.90;;;;;;5029107;28;38090;-79
2021/09/20 07:42:03;;;;;;;8.27;6.18;;;13.50;99.90;;;;;;5035524;28;38837;-80
2021/09/20 07:44:29;;;;;;;7.93;6.18;;;13.60;99.90;;;;;;5031233;28;38440;-79
2021/09/20 07:46:55;;;;;;;6.68;6.00;;;13.60;99.90;;;;;;5036491;28;37734;-80
2021/09/20 07:49:21;;;;;;;10.30;5.75;;;13.60;99.90;;;;;;5038957;28;39032;-80
2021/09/20 07:51:47;;;;;;;7.25;6.05;;;13.70;99.90;;;;;;5035443;28;40380;-80
2021/09/20 07:54:13;;;;;;;9.18;5.60;;;13.90;99.90;;;;;;5033960;28;39928;-80
2021/09/20 07:56:39;;;;;;;7.50;5.88;;;13.80;99.90;;;;;;5030218;28;37792;-80
2021/09/20 07:59:06;;;;;;;8.30;5.40;;;13.90;99.90;;;;;;5041943;28;37473;-80
2021/09/20 08:01:32;;;;;;;6.57;5.30;;;14.00;99.90;;;;;;5046380;28;40363;-81
2021/09/20 08:04:00;;;;;;;7.28;6.13;;;14.00;99.90;;;;;;5030754;28;38532;-80
2021/09/20 08:06:28;;;;;;;8.48;6.45;;;14.00;99.90;;;;;;5030370;28;47440;-80
2021/09/20 08:08:54;;;;;;;7.97;6.43;;;14.10;99.90;;;;;;5041728;28;37178;-80
2021/09/20 08:11:20;;;;;;;7.70;5.97;;;14.20;99.90;;;;;;5045331;28;40612;-80
2021/09/20 08:13:47;;;;;;;7.40;5.93;;;14.30;99.90;;;;;;5062915;28;38287;-80
2021/09/20 08:16:13;;;;;;;7.55;5.93;;;14.30;99.90;;;;;;5033606;28;37247;-80
2021/09/20 08:18:40;;;;;;;7.28;6.10;;;14.30;99.90;;;;;;5041478;28;37029;-80
2021/09/20 08:21:06;;;;;;;7.75;6.32;;;14.30;99.90;;;;;;5040979;28;39612;-79
2021/09/20 08:23:33;;;;;;;8.05;6.55;;;14.40;99.90;;;;;;5047295;28;38244;-80
2021/09/20 08:25:59;;;;;;;6.88;6.18;;;14.30;99.90;;;;;;5033184;28;38939;-80
2021/09/20 08:28:26;;;;;;;8.05;6.70;;;14.30;99.90;;;;;;5034769;28;37707;-80
2021/09/20 08:30:52;;;;;;;7.97;6.32;;;14.40;99.90;;;;;;5037672;28;39668;-79
2021/09/20 08:33:18;;;;;;;7.63;6.75;;;14.50;99.90;;;;;;5035062;28;39610;-79
2021/09/20 08:35:44;;;;;;;8.45;6.45;;;14.60;99.90;;;;;;5024790;28;38992;-80
2021/09/20 08:38:10;;;;;;;8.13;6.45;;;14.70;99.90;;;;;;5036831;28;37960;-79
2021/09/20 08:40:36;;;;;;;8.18;5.63;;;14.90;99.90;;;;;;5040602;28;39134;-79
2021/09/20 08:43:03;;;;;;;7.32;5.78;;;15.00;99.90;;;;;;5037782;28;38045;-80
2021/09/20 08:45:29;;;;;;;6.63;5.88;;;15.10;99.90;;;;;;5051558;28;47486;-80
2021/09/20 08:47:58;;;;;;;8.18;6.28;;;15.10;99.90;;;;;;5055141;28;37802;-80
2021/09/20 08:50:34;;;;;;;7.25;5.50;;;15.30;99.90;;;;;;5042674;28;39677;-80
2021/09/20 08:53:01;;;;;;;10.20;6.10;;;15.20;99.90;;;;;;5038115;28;37459;-80
2021/09/20 08:55:27;;;;;;;7.13;5.45;;;15.20;99.90;;;;;;5045587;28;40126;-79
2021/09/20 08:57:53;;;;;;;8.27;5.93;;;15.30;99.90;;;;;;5035383;28;37393;-78
2021/09/20 09:00:20;;;;;;;11.13;6.38;;;15.50;99.90;;;;;;5042700;28;37662;-79
2021/09/20 09:02:46;;;;;;;9.50;6.53;;;15.40;99.90;;;;;;5045947;28;38547;-79
2021/09/20 09:05:22;;;;;;;8.75;6.53;;;15.60;99.90;;;;;;5045220;28;37776;-79
2021/09/20 09:07:52;;;;;;;8.02;7.03;;;15.70;99.90;;;;;;5044817;28;36440;-79
2021/09/20 09:10:19;;;;;;;7.60;6.60;;;15.80;99.90;;;;;;5047118;28;39766;-80
2021/09/20 09:12:45;;;;;;;11.55;7.13;;;15.80;99.90;;;;;;5049549;28;40459;-80
2021/09/20 09:15:13;;;;;;;8.02;6.07;;;15.80;99.90;;;;;;5043476;28;39488;-80
2021/09/20 09:17:43;;;;;;;9.98;7.28;;;15.70;99.90;;;;;;5039870;28;38772;-80
2021/09/20 09:20:10;;;;;;;7.72;6.93;;;15.70;99.90;;;;;;5039504;28;40365;-80
2021/09/20 09:22:46;;;;;;;10.95;7.63;;;15.60;99.90;;;;;;5043729;28;38324;-80
2021/09/20 09:25:16;;;;;;;8.00;6.82;;;15.50;99.90;;;;;;5038537;28;38790;-80
2021/09/20 09:27:43;;;;;;;9.13;7.63;;;15.40;99.90;;;;;;5038629;28;38232;-80
2021/09/20 09:30:15;;;;;;;8.35;7.50;;;15.60;99.90;;;;;;5039358;28;39243;-80
2021/09/20 09:32:42;;;;;;;;;;;15.70;99.90;;;;;;5040701;28;39390;-80
2021/09/20 09:35:09;;;;;;;9.50;7.03;;;15.80;99.90;;;;;;5037473;28;37770;-80
2021/09/20 09:37:38;;;;;;;7.20;6.32;;;15.80;99.90;;;;;;5042321;28;37904;-82
2021/09/20 09:40:22;;;;;;;8.68;7.13;;;16.00;99.90;;;;;;5043050;28;38768;-82
2021/09/20 09:42:51;;;;;;;9.20;6.40;;;16.10;99.90;;;;;;5033534;28;48170;-81
2021/09/20 09:45:30;;;;;;;9.07;6.35;;;16.30;99.90;;;;;;5035378;28;40248;-82
2021/09/20 09:48:36;;;;;;;7.95;6.25;;;16.40;99.90;;;;;;5029637;28;37658;-82
2021/09/20 09:51:03;;;;;;;9.88;7.15;;;16.40;99.90;;;;;;5018988;28;46911;-81
2021/09/20 09:53:35;;;;;;;7.13;6.43;;;16.50;99.90;;;;;;5046931;28;38157;-82
2021/09/20 09:56:24;;;;;;;12.02;6.75;;;16.60;99.90;;;;;;5031523;28;38129;-81
2021/09/20 09:59:05;;;;;;;8.10;6.40;;;16.70;99.90;;;;;;5033097;28;48611;-82
2021/09/20 10:01:39;;;;;;;10.23;6.88;;;16.80;99.90;;;;;;5045125;28;48528;-81
2021/09/20 10:04:24;;;;;;;9.23;6.90;;;16.90;99.90;;;;;;5039414;28;37887;-82
2021/09/20 10:06:55;;;;;;;8.63;7.55;;;16.90;99.90;;;;;;5047553;28;38246;-81
2021/09/20 10:09:25;;;;;;;12.50;7.13;;;16.60;99.90;;;;;;5040912;28;37128;-82
2021/09/20 10:11:53;;;;;;;9.43;7.32;;;16.80;99.90;;;;;;5043251;28;38607;-81
2021/09/20 10:14:21;;;;;;;8.40;6.90;;;17.10;99.90;;;;;;5033171;28;39195;-81
2021/09/20 10:16:51;;;;;;;9.85;7.90;;;17.30;99.90;;;;;;5041780;28;39343;-81
2021/09/20 10:19:17;;;;;;;9.40;8.40;;;17.50;99.90;;;;;;5038173;28;38027;-81
2021/09/20 10:21:44;;;;;;;8.25;6.72;;;17.30;99.90;;;;;;5034377;28;39599;-81
2021/09/20 10:24:10;;;;;;;9.38;8.25;;;17.50;99.90;;;;;;5044915;28;38204;-81
2021/09/20 10:26:36;;;;;;;9.07;7.78;;;17.70;99.90;;;;;;5038181;28;38855;-81
2021/09/20 10:29:05;;;;;;;11.13;7.93;;;17.80;99.90;;;;;;5041622;28;37672;-81
2021/09/20 10:31:34;;;;;;;9.98;7.28;;;17.80;99.90;;;;;;5037421;28;47049;-81
2021/09/20 10:34:19;;;;;;;8.65;6.70;;;17.50;99.90;;;;;;5042201;28;38995;-81
2021/09/20 10:36:49;;;;;;;8.60;6.78;;;17.80;99.90;;;;;;5032016;28;47188;-81
2021/09/20 10:39:16;;;;;;;9.35;7.07;;;18.10;99.90;;;;;;5049535;28;37350;-82
2021/09/20 10:41:42;;;;;;;8.73;6.95;;;17.90;99.90;;;;;;5040466;28;39067;-81
2021/09/20 10:44:12;;;;;;;9.35;6.88;;;17.70;99.90;;;;;;5038653;28;39126;-81
2021/09/20 10:46:42;;;;;;;8.90;7.85;;;17.60;99.90;;;;;;5034596;28;38295;-82
2021/09/20 10:49:21;;;;;;;8.05;7.25;;;17.50;99.90;;;;;;5035702;28;37914;-82
2021/09/20 10:52:05;;;;;;;9.18;8.18;;;17.80;99.90;;;;;;5043097;28;38325;-80
2021/09/20 10:54:31;;;;;;;10.88;8.00;;;17.50;99.90;;;;;;5049233;28;48703;-82
2021/09/20 10:57:17;;;;;;;8.27;7.47;;;17.50;99.90;;;;;;5049406;28;37665;-81
2021/09/20 10:59:44;;;;;;;10.40;8.00;;;17.60;99.90;;;;;;5044865;28;48281;-81
2021/09/20 11:02:18;;;;;;;9.40;8.38;;;17.70;99.90;;;;;;5035734;28;39944;-81
2021/09/20 11:04:45;;;;;;;8.75;7.72;;;17.90;99.90;;;;;;5043310;28;38834;-81
2021/09/20 11:07:18;;;;;;;9.93;8.13;;;18.20;99.90;;;;;;5045906;28;37900;-81
2021/09/20 11:09:46;;;;;;;9.48;7.70;;;18.40;99.90;;;;;;5037117;28;37479;-81
2021/09/20 11:12:24;;;;;;;11.00;9.13;;;18.20;99.90;;;;;;5047091;28;38513;-81
2021/09/20 11:15:13;;;;;;;9.70;7.78;;;18.40;99.90;;;;;;5048819;28;39839;-81
2021/09/20 11:17:42;;;;;;;8.55;7.32;;;18.50;99.90;;;;;;5045287;28;48682;-81
2021/09/20 11:20:29;;;;;;;10.30;7.00;;;18.60;99.90;;;;;;5046112;28;37676;-81
2021/09/20 11:23:14;;;;;;;8.27;7.07;;;18.90;99.90;;;;;;5047484;28;39174;-81
2021/09/20 11:25:40;;;;;;;7.68;6.07;;;19.20;99.90;;;;;;5034958;28;47453;-81
2021/09/20 11:28:07;;;;;;;8.05;7.15;;;19.20;99.90;;;;;;5040065;28;37749;-81
2021/09/20 11:30:33;;;;;;;10.48;6.93;;;19.10;99.90;;;;;;5043083;28;37854;-79
2021/09/20 11:33:08;;;;;;;9.68;6.07;;;19.00;99.90;;;;;;5052410;28;40350;-79
2021/09/20 11:35:35;;;;;;;11.10;6.38;;;19.00;99.90;;;;;;5042754;28;48338;-78
2021/09/20 11:38:04;;;;;;;8.68;6.75;;;19.20;99.90;;;;;;5038602;28;37997;-80
2021/09/20 11:40:33;;;;;;;8.10;6.32;;;19.10;99.90;;;;;;5033752;28;47073;-82
2021/09/20 11:43:06;;;;;;;11.23;7.05;;;18.90;99.90;;;;;;5037532;28;37310;-82
2021/09/20 11:45:37;;;;;;;8.27;6.32;;;18.80;99.90;;;;;;5036041;28;47320;-81
2021/09/20 11:48:18;;;;;;;7.68;5.72;;;19.00;99.90;;;;;;5046889;28;38612;-79
2021/09/20 11:50:44;;;;;;;7.70;6.80;;;19.10;99.90;;;;;;5046511;28;36937;-81
2021/09/20 11:53:13;;;;;;;9.93;6.60;;;18.80;99.90;;;;;;5034034;28;39178;-81
2021/09/20 11:55:44;;;;;;;8.50;6.95;;;18.60;99.90;;;;;;5034755;28;39959;-81
2021/09/20 11:58:14;;;;;;;9.43;6.83;;;18.50;99.90;;;;;;5044651;28;38310;-81
2021/09/20 12:00:47;;;;;;;8.55;6.93;;;18.60;99.90;;;;;;5046122;28;37192;-81
2021/09/20 12:03:16;;;;;;;9.73;6.88;;;18.60;99.90;;;;;;5031205;28;38801;-82
2021/09/20 12:05:45;;;;;;;6.38;5.75;;;18.60;99.90;;;;;;5026850;28;39564;-81
2021/09/20 12:08:14;;;;;;;9.43;6.13;;;18.70;99.90;;;;;;5033435;28;38141;-82
2021/09/20 12:10:46;;;;;;;7.88;6.55;;;18.60;99.90;;;;;;5042224;28;38095;-81
2021/09/20 12:13:14;;;;;;;7.80;6.50;;;18.70;99.90;;;;;;5041414;28;40726;-81
2021/09/20 12:15:42;;;;;;;7.22;5.55;;;18.60;99.90;;;;;;5042824;28;38292;-82
2021/09/20 12:18:13;;;;;;;6.80;6.13;;;18.90;99.90;;;;;;5041390;28;38565;-82
2021/09/20 12:20:44;;;;;;;7.18;5.65;;;18.90;99.90;;;;;;5032773;28;37098;-81
2021/09/20 12:23:27;;;;;;;7.05;6.25;;;18.90;99.90;;;;;;5039455;28;39771;-82
2021/09/20 12:25:57;;;;;;;8.07;6.53;;;18.70;99.90;;;;;;5041501;28;38785;-80
2021/09/20 12:28:32;;;;;;;7.35;5.55;;;18.60;99.90;;;;;;5038367;28;37711;-81
2021/09/20 12:31:04;;;;;;;6.63;5.78;;;18.90;99.90;;;;;;5040992;28;37567;-81
2021/09/20 12:33:58;;;;;;;5.82;5.05;;;18.90;99.90;;;;;;5040642;28;48211;-82
2021/09/20 12:36:39;;;;;;;10.05;6.50;;;18.80;99.90;;;;;;5041693;28;39235;-82
2021/09/20 12:39:22;;;;;;;6.60;5.93;;;18.80;99.90;;;;;;5032317;28;38696;-81
2021/09/20 12:41:54;;;;;;;;;;;18.90;99.90;;;;;;5045232;28;37563;-81
2021/09/20 12:44:30;;;;;;;8.10;5.85;;;19.10;99.90;;;;;;5045015;28;39740;-81
2021/09/20 12:47:17;;;;;;;5.53;5.00;;;19.20;99.90;;;;;;5044608;28;37309;-80
2021/09/20 12:49:56;;;;;;;5.97;5.00;;;19.20;99.90;;;;;;5044275;28;49556;-81